Time;durP1;ratioP1;P1;durP2;ratioP2;P2;SDS_P1;SDS_P2;PMS_P1;PMS_P2;Temp;Humidity;BMP_temperature;BMP_pressure;BME280_temperature;BME280_humidity;BME280_pressure;Samples;Min_cycle;Max_cycle;Signal;HPM_P1;HPM_P2
2022/10/07 00:00:45;;;;;;;;;15.00;14.00;;;;;22.31;56.60;101971.97;5080251;28;46218;-40
2022/10/07 00:03:10;;;;;;;;;20.50;17.50;;;;;22.31;56.29;101974.63;5080108;28;45442;-40
2022/10/07 00:05:35;;;;;;;;;20.50;15.50;;;;;22.31;56.02;101977.28;5079549;28;58933;-41
2022/10/07 00:08:01;;;;;;;;;17.25;16.00;;;;;22.31;55.99;101968.44;5079246;28;68832;-40
2022/10/07 00:10:26;;;;;;;;;19.25;17.75;;;;;22.31;55.89;101971.09;5072534;28;70708;-40
2022/10/07 00:12:52;;;;;;;;;17.75;15.00;;;;;22.30;56.42;101967.56;5059684;28;45268;-41
2022/10/07 00:15:18;;;;;;;;;19.00;15.75;;;;;22.28;56.19;101967.59;5059636;28;45346;-40
2022/10/07 00:17:44;;;;;;;;;17.75;15.50;;;;;22.29;56.16;101966.69;5059580;28;45492;-40
2022/10/07 00:20:09;;;;;;;;;17.50;15.75;;;;;22.29;56.03;101960.50;5058210;28;46938;-40
2022/10/07 00:22:34;;;;;;;;;8.00;7.00;;;;;22.28;55.93;101956.94;5071851;28;67697;-40
2022/10/07 00:25:00;;;;;;;;;15.50;15.00;;;;;22.29;56.09;101948.06;5063917;28;45276;-41
2022/10/07 00:27:25;;;;;;;;;18.75;16.75;;;;;22.29;56.28;101960.50;5062923;28;45228;-40
2022/10/07 00:29:51;;;;;;;;;21.50;16.25;;;;;22.28;56.32;101954.28;5062517;28;62415;-40
2022/10/07 00:32:16;;;;;;;;;20.75;18.75;;;;;22.29;56.24;101956.03;5062841;28;48997;-39
2022/10/07 00:34:41;;;;;;;;;20.50;17.50;;;;;22.28;55.88;101954.28;5061215;28;61104;-39
2022/10/07 00:37:07;;;;;;;;;20.75;17.75;;;;;22.28;55.65;101954.28;5062681;28;55206;-39
2022/10/07 00:39:32;;;;;;;;;24.75;21.25;;;;;22.28;55.96;101948.97;5061992;28;65177;-40
2022/10/07 00:41:58;;;;;;;;;17.25;16.00;;;;;22.28;55.94;101945.44;5063019;28;45142;-40
2022/10/07 00:44:44;;;;;;;;;20.50;14.75;;;;;22.28;56.25;101943.66;5081167;28;45772;-40
2022/10/07 00:47:15;;;;;;;;;18.75;16.75;;;;;22.28;56.03;101938.34;5078346;28;45491;-40
2022/10/07 00:49:53;;;;;;;;;15.50;11.00;;;;;22.29;55.88;101939.22;5062879;28;45334;-40
2022/10/07 00:52:19;;;;;;;;;21.75;19.25;;;;;22.28;55.74;101941.00;5062652;28;45152;-41
2022/10/07 00:54:45;;;;;;;;;22.25;16.00;;;;;22.28;56.32;101934.81;5056134;28;45265;-39
2022/10/07 00:57:10;;;;;;;;;18.25;16.50;;;;;22.27;56.03;101930.41;5064567;28;45367;-40
2022/10/07 00:59:38;;;;;;;;;16.75;14.00;;;;;22.28;56.48;101935.69;5081697;28;45868;-39
2022/10/07 01:02:04;;;;;;;;;18.75;17.75;;;;;22.28;55.80;101933.03;5081387;28;45331;-40
2022/10/07 01:04:30;;;;;;;;;21.75;15.25;;;;;22.28;56.39;101933.03;5065014;28;45401;-40
2022/10/07 01:06:55;;;;;;;;;24.00;18.50;;;;;22.28;56.24;101932.16;5064530;28;45229;-40
2022/10/07 01:09:21;;;;;;;;;21.00;16.00;;;;;22.29;56.24;101925.91;5073656;28;45242;-42
2022/10/07 01:12:14;;;;;;;;;19.75;17.00;;;;;22.29;55.56;101925.91;5064728;28;45279;-40
2022/10/07 01:14:39;;;;;;;;;18.75;17.50;;;;;22.28;55.92;101921.50;5061137;28;45458;-40
2022/10/07 01:17:13;;;;;;;;;19.75;19.75;;;;;22.28;56.03;101918.84;5062544;28;45237;-41
2022/10/07 01:20:09;;;;;;;;;15.25;14.50;;;;;22.28;55.65;101913.53;5062300;28;45346;-41
2022/10/07 01:22:53;;;;;;;;;21.00;18.75;;;;;22.27;55.50;101915.31;5062429;28;45370;-40
2022/10/07 01:26:12;;;;;;;;;18.00;15.50;;;;;22.27;56.01;101907.34;5070018;28;45290;-40
2022/10/07 01:28:43;;;;;;;;;19.75;16.75;;;;;22.26;55.87;101910.91;5030761;28;45361;-40
2022/10/07 01:31:09;;;;;;;;;21.75;17.25;;;;;22.25;55.90;101906.50;5050348;28;46377;-40
2022/10/07 01:33:34;;;;;;;;;15.25;15.00;;;;;22.26;55.97;101904.72;5059923;28;45510;-40
2022/10/07 01:36:05;;;;;;;;;20.75;18.75;;;;;22.26;55.95;101907.38;5057156;28;45399;-40
2022/10/07 01:38:32;;;;;;;;;12.75;10.00;;;;;22.26;55.91;101899.38;5034867;28;45516;-39
2022/10/07 01:41:06;;;;;;;;;19.00;16.50;;;;;22.25;55.46;101901.19;5060446;28;47138;-40
2022/10/07 01:43:31;;;;;;;;;21.00;17.25;;;;;22.25;55.52;101895.84;5060876;28;46166;-41
2022/10/07 01:45:57;;;;;;;;;16.75;14.50;;;;;22.25;55.72;101892.31;5061152;28;61472;-39
2022/10/07 01:48:22;;;;;;;;;19.50;17.50;;;;;22.24;55.33;101888.78;5061148;28;63836;-40
2022/10/07 01:50:48;;;;;;;;;18.00;16.75;;;;;22.24;55.14;101882.56;5043367;28;47664;-39
2022/10/07 01:53:21;;;;;;;;;20.50;20.50;;;;;22.23;55.50;101875.50;5072557;28;45354;-40
2022/10/07 01:56:45;;;;;;;;;17.25;15.25;;;;;22.23;55.08;101867.53;5080723;28;45339;-41
2022/10/07 01:59:35;;;;;;;;;18.50;17.00;;;;;22.22;55.25;101864.00;5036103;27;45625;-40
2022/10/07 02:02:17;;;;;;;;;19.25;17.00;;;;;22.21;55.53;101856.03;5074535;28;47413;-39
2022/10/07 02:04:49;;;;;;;;;19.25;17.75;;;;;22.22;55.05;101865.78;5046026;28;45301;-40
2022/10/07 02:07:50;;;;;;;;;18.50;15.50;;;;;22.21;55.04;101858.72;5068853;28;45162;-40
2022/10/07 02:10:31;;;;;;;;;18.25;15.50;;;;;22.21;55.42;101850.72;5073845;28;45276;-40
2022/10/07 02:13:07;;;;;;;;;11.75;10.25;;;;;22.21;55.29;101850.72;5053807;28;45326;-40
2022/10/07 02:15:37;;;;;;;;;17.75;16.25;;;;;22.21;54.95;101850.72;5060107;28;45354;-40
2022/10/07 02:18:05;;;;;;;;;21.25;17.00;;;;;22.21;55.13;101845.41;5061338;28;45299;-40
2022/10/07 02:20:32;;;;;;;;;16.50;15.75;;;;;22.20;55.24;101833.91;5053151;28;45375;-40
2022/10/07 02:22:57;;;;;;;;;17.25;15.00;;;;;22.20;55.12;101841.00;5060523;28;46856;-40
2022/10/07 02:25:23;;;;;;;;;18.50;17.50;;;;;22.20;55.21;101841.00;5060221;28;45347;-40
2022/10/07 02:27:50;;;;;;;;;22.75;18.50;;;;;22.19;54.93;101832.16;5056349;28;45504;-38
2022/10/07 02:30:16;;;;;;;;;14.75;13.00;;;;;22.20;54.78;101833.03;5043161;28;45424;-37
2022/10/07 02:32:45;;;;;;;;;16.00;15.75;;;;;22.19;54.97;101831.28;5059674;28;46777;-38
2022/10/07 02:35:16;;;;;;;;;17.75;15.75;;;;;22.19;54.85;101820.66;5061200;28;45350;-38
2022/10/07 02:37:41;;;;;;;;;17.50;15.25;;;;;22.19;54.56;101815.31;5061215;28;45270;-38
2022/10/07 02:40:07;;;;;;;;;17.00;14.75;;;;;22.19;54.77;101807.34;5042537;28;57418;-38
2022/10/07 02:43:03;;;;;;;;;22.00;16.75;;;;;22.18;55.08;101809.13;5060372;28;45359;-38
2022/10/07 02:45:37;;;;;;;;;19.50;16.25;;;;;22.19;54.95;101810.00;5071308;28;45239;-38
2022/10/07 02:48:14;;;;;;;;;16.25;16.25;;;;;22.18;54.53;101806.47;5059503;28;45441;-38
2022/10/07 02:50:41;;;;;;;;;17.75;16.75;;;;;22.19;54.68;101810.00;5059778;28;45253;-38
2022/10/07 02:53:06;;;;;;;;;19.25;16.75;;;;;22.18;54.56;101800.28;5060094;28;46101;-39
2022/10/07 02:55:31;;;;;;;;;20.00;17.25;;;;;22.18;54.47;101809.13;5078380;28;45317;-40
2022/10/07 02:57:59;;;;;;;;;17.25;11.75;;;;;22.18;54.53;101798.50;5062357;28;59512;-40
2022/10/07 03:00:25;;;;;;;;;18.00;16.25;;;;;22.18;54.35;101793.19;5063182;28;45400;-41
2022/10/07 03:02:55;;;;;;;;;19.50;15.50;;;;;22.18;54.46;101800.28;5062815;28;48607;-41
2022/10/07 03:05:21;;;;;;;;;18.50;14.50;;;;;22.18;54.41;101789.66;5079627;28;45349;-41
2022/10/07 03:07:47;;;;;;;;;19.00;16.00;;;;;22.17;54.40;101791.44;5080121;28;45375;-40
2022/10/07 03:10:13;;;;;;;;;18.00;17.00;;;;;22.17;54.73;101788.78;5074208;28;45340;-41
2022/10/07 03:12:38;;;;;;;;;15.75;15.00;;;;;22.18;54.29;101792.31;5071610;28;71174;-40
2022/10/07 03:15:04;;;;;;;;;15.50;15.00;;;;;22.18;54.21;101784.31;5079264;28;45410;-41
2022/10/07 03:17:29;;;;;;;;;18.75;14.50;;;;;22.16;54.16;101784.38;5080808;28;45526;-41
2022/10/07 03:19:55;;;;;;;;;18.00;17.25;;;;;22.17;54.94;101782.59;5080564;28;49982;-40
2022/10/07 03:22:20;;;;;;;;;16.00;14.50;;;;;22.15;54.76;101779.97;5078890;28;68240;-41
2022/10/07 03:24:45;;;;;;;;;21.25;16.25;;;;;22.15;54.56;101776.41;5080467;28;45219;-40
2022/10/07 03:27:11;;;;;;;;;13.00;11.75;;;;;22.16;54.65;101779.06;5078704;28;62620;-40
2022/10/07 03:29:36;;;;;;;;;15.50;15.50;;;;;22.15;54.49;101773.75;5062343;28;45229;-40
2022/10/07 03:32:02;;;;;;;;;13.75;13.25;;;;;22.17;54.25;101771.94;5058246;28;62846;-40
2022/10/07 03:34:27;;;;;;;;;13.50;10.50;;;;;22.16;54.59;101773.72;5058946;28;45442;-40
2022/10/07 03:36:54;;;;;;;;;14.75;14.00;;;;;22.16;54.56;101776.41;5060609;28;45233;-40
2022/10/07 03:39:19;;;;;;;;;17.75;16.00;;;;;22.15;54.44;101772.00;5060090;28;45247;-40
2022/10/07 03:41:47;;;;;;;;;19.25;17.25;;;;;22.16;54.13;101767.53;5060010;28;45466;-40
2022/10/07 03:44:13;;;;;;;;;18.75;14.75;;;;;22.15;54.08;101766.66;5058849;28;45596;-41
2022/10/07 03:46:38;;;;;;;;;17.25;16.50;;;;;22.15;54.07;101771.09;5060129;28;45356;-41
2022/10/07 03:49:04;;;;;;;;;13.25;13.00;;;;;22.14;54.25;101764.88;5059995;28;45572;-40
2022/10/07 03:51:29;;;;;;;;;16.00;16.00;;;;;22.13;54.39;101765.81;5058179;28;63262;-41
2022/10/07 03:53:56;;;;;;;;;16.75;15.00;;;;;22.13;54.28;101768.47;5063464;28;62013;-41
2022/10/07 03:56:21;;;;;;;;;16.50;14.25;;;;;22.13;54.42;101771.13;5080497;28;45234;-41
2022/10/07 03:58:47;;;;;;;;;17.00;15.75;;;;;22.13;54.45;101764.94;5082039;28;45505;-40
2022/10/07 04:01:15;;;;;;;;;17.50;15.75;;;;;22.13;53.91;101762.28;5083362;28;56862;-41
2022/10/07 04:03:40;;;;;;;;;17.00;15.00;;;;;22.13;54.20;101759.63;5083871;28;45289;-38
2022/10/07 04:06:06;;;;;;;;;17.25;16.25;;;;;22.13;54.00;101762.28;5084234;28;45372;-39
2022/10/07 04:08:31;;;;;;;;;21.25;16.00;;;;;22.13;54.19;101762.28;5083618;28;45264;-39
2022/10/07 04:10:57;;;;;;;;;14.00;13.00;;;;;22.13;53.91;101751.63;5072184;28;46396;-40
2022/10/07 04:13:22;;;;;;;;;13.00;12.00;;;;;22.12;54.05;101758.75;5063521;28;45290;-38
2022/10/07 04:15:48;;;;;;;;;17.75;16.00;;;;;22.12;54.14;101757.88;5062034;28;45438;-38
2022/10/07 04:18:13;;;;;;;;;17.75;15.75;;;;;22.11;53.97;101759.66;5063112;28;45506;-40
2022/10/07 04:20:39;;;;;;;;;19.50;16.50;;;;;22.11;54.03;101753.47;5072501;28;59113;-39
2022/10/07 04:23:04;;;;;;;;;13.75;12.25;;;;;22.12;54.18;101755.22;5065176;28;64420;-40
2022/10/07 04:25:32;;;;;;;;;18.25;16.00;;;;;22.11;53.88;101751.69;5062278;28;60658;-40
2022/10/07 04:27:58;;;;;;;;;22.50;18.00;;;;;22.11;54.15;101753.47;5063251;28;45230;-39
2022/10/07 04:30:24;;;;;;;;;19.00;16.50;;;;;22.11;54.20;101743.69;5063033;28;47009;-40
2022/10/07 04:32:50;;;;;;;;;18.00;15.00;;;;;22.11;53.44;101748.16;5061726;28;45251;-42
2022/10/07 04:35:20;;;;;;;;;18.75;15.50;;;;;22.11;53.78;101741.03;5063392;28;45665;-40
2022/10/07 04:37:48;;;;;;;;;14.50;12.75;;;;;;;;5062987;28;45290;-40
2022/10/07 04:40:14;;;;;;;;;15.50;13.25;;;;;;;;5062968;28;45461;-41
2022/10/07 04:45:23;;;;;;;;;16.00;13.25;;;;;22.08;53.82;101743.78;5063191;28;45405;-40
2022/10/07 04:47:49;;;;;;;;;17.25;15.00;;;;;22.07;53.59;101744.69;5052385;28;45493;-40
2022/10/07 04:50:14;;;;;;;;;18.00;15.25;;;;;22.07;53.95;101734.06;5080961;28;55556;-43
2022/10/07 04:52:41;;;;;;;;;17.25;15.25;;;;;22.08;53.60;101732.28;5062909;28;45231;-40
2022/10/07 04:55:07;;;;;;;;;15.00;13.25;;;;;22.07;53.76;101728.75;5076016;28;45346;-40
2022/10/07 04:57:33;;;;;;;;;11.75;11.75;;;;;22.08;53.26;101732.28;5081840;28;45339;-40
2022/10/07 04:59:58;;;;;;;;;16.00;13.75;;;;;22.07;53.69;101726.09;5082458;28;53844;-41
2022/10/07 05:02:23;;;;;;;;;10.00;9.00;;;;;22.07;53.69;101728.75;5081416;28;51073;-41
2022/10/07 05:04:49;;;;;;;;;12.00;12.00;;;;;22.07;53.07;101730.50;5081987;28;65610;-43
2022/10/07 05:07:17;;;;;;;;;13.75;13.00;;;;;22.08;53.21;101729.63;5081504;28;53385;-40
2022/10/07 05:09:42;;;;;;;;;17.50;15.75;;;;;22.09;53.71;101726.03;5082069;28;46404;-43
2022/10/07 05:12:08;;;;;;;;;14.50;13.50;;;;;22.09;53.36;101734.03;5062406;28;45282;-42
2022/10/07 05:14:33;;;;;;;;;13.00;10.75;;;;;;;;5062471;28;45180;-46
2022/10/07 05:16:58;;;;;;;;;15.25;12.75;;;;;22.12;53.90;101731.28;5048219;28;45848;-41
2022/10/07 05:19:24;;;;;;;;;19.50;16.00;;;;;22.12;53.63;101731.28;5075592;28;70242;-42
2022/10/07 05:21:50;;;;;;;;;16.25;13.00;;;;;22.12;53.94;101724.19;5082865;28;45176;-41
2022/10/07 05:24:15;;;;;;;;;16.25;15.50;;;;;22.13;53.53;101723.25;5082722;28;45256;-40
2022/10/07 05:26:41;;;;;;;;;14.50;14.00;;;;;22.14;53.83;101726.78;5082451;28;45364;-40
2022/10/07 05:29:07;;;;;;;;;14.25;13.25;;;;;22.14;53.78;101722.34;5082522;28;45587;-40
2022/10/07 05:31:33;;;;;;;;;14.75;12.25;;;;;22.14;53.93;101718.81;5064311;28;45358;-42
2022/10/07 05:33:58;;;;;;;;;12.75;10.25;;;;;22.15;53.99;101717.91;5082553;28;45301;-41
2022/10/07 05:36:24;;;;;;;;;18.25;15.25;;;;;22.15;54.08;101715.25;5082471;28;45285;-41
2022/10/07 05:38:49;;;;;;;;;18.25;16.25;;;;;22.15;54.05;101721.47;5082313;28;46146;-40
2022/10/07 05:41:14;;;;;;;;;11.50;11.50;;;;;22.15;53.88;101717.91;5080098;28;63829;-41
2022/10/07 05:43:45;;;;;;;;;18.25;14.75;;;;;22.14;54.23;101708.19;5081586;28;65343;-41
2022/10/07 05:46:14;;;;;;;;;15.00;12.00;;;;;22.14;54.66;101727.66;5064947;28;45377;-42
2022/10/07 05:48:40;;;;;;;;;15.75;13.50;;;;;22.13;54.58;101725.91;5081954;28;46682;-41
2022/10/07 05:51:08;;;;;;;;;14.00;12.50;;;;;22.13;54.75;101719.72;5080848;28;45300;-40
2022/10/07 05:53:34;;;;;;;;;14.75;13.50;;;;;22.13;54.90;101720.59;5068405;28;45262;-42
2022/10/07 05:56:07;;;;;;;;;15.50;13.25;;;;;22.12;54.60;101716.19;5082076;28;45207;-40
2022/10/07 05:58:35;;;;;;;;;13.00;13.00;;;;;22.12;54.92;101728.63;5081810;28;45230;-41
2022/10/07 06:01:01;;;;;;;;;17.50;10.75;;;;;22.10;54.64;101715.38;5082018;28;45276;-44
2022/10/07 06:03:26;;;;;;;;;17.00;15.50;;;;;22.13;54.98;101715.28;5080679;28;45356;-38
2022/10/07 06:05:52;;;;;;;;;19.00;15.00;;;;;22.12;55.17;101723.31;5080248;28;60099;-38
2022/10/07 06:08:18;;;;;;;;;16.75;14.25;;;;;22.10;55.35;101727.78;5081701;28;46195;-38
2022/10/07 06:13:29;;;;;;;;;15.25;14.75;;;;;22.07;55.15;101723.44;5061861;28;45497;-37
2022/10/07 06:16:05;;;;;;;;;19.75;15.25;;;;;22.07;55.09;101712.78;5061334;28;45364;-37
2022/10/07 06:18:30;;;;;;;;;12.25;12.00;;;;;22.07;55.73;101711.88;5061302;28;46324;-37
2022/10/07 06:20:57;;;;;;;;;13.50;11.75;;;;;22.07;55.71;101714.53;5060857;28;45375;-38
2022/10/07 06:23:23;;;;;;;;;14.25;12.75;;;;;22.07;55.24;101712.78;5061661;28;45230;-38
2022/10/07 06:25:59;;;;;;;;;19.75;16.50;;;;;22.08;55.50;101711.00;5061336;28;45243;-38
2022/10/07 06:28:24;;;;;;;;;17.75;14.75;;;;;22.07;55.69;101719.84;5069121;28;47160;-38
2022/10/07 06:30:50;;;;;;;;;5.75;1.25;;;;;22.07;55.65;101710.13;5080575;28;45326;-37
2022/10/07 06:33:16;;;;;;;;;16.75;13.00;;;;;22.07;55.57;101722.53;5080320;28;45247;-38
2022/10/07 06:35:41;;;;;;;;;15.00;13.25;;;;;22.07;55.60;101719.84;5081312;28;45469;-39
2022/10/07 06:38:07;;;;;;;;;17.25;15.50;;;;;22.07;55.35;101710.13;5081485;28;45590;-38
2022/10/07 06:40:32;;;;;;;;;14.50;10.25;;;;;22.08;55.24;101713.66;5079459;28;52698;-38
2022/10/07 06:42:57;;;;;;;;;15.25;12.00;;;;;22.11;55.93;101714.44;5081566;28;45357;-39
2022/10/07 06:45:23;;;;;;;;;12.25;10.50;;;;;22.12;55.45;101717.97;5079721;28;53329;-43
2022/10/07 06:47:48;;;;;;;;;18.00;14.25;;;;;22.12;55.62;101718.84;5081210;28;46489;-38
2022/10/07 06:50:14;;;;;;;;;13.25;12.25;;;;;22.12;55.76;101716.19;5081001;28;50654;-38
2022/10/07 06:52:39;;;;;;;;;17.25;14.50;;;;;22.12;55.61;101716.19;5074267;28;45361;-38
2022/10/07 06:55:06;;;;;;;;;16.25;13.00;;;;;22.12;55.60;101716.19;5074843;28;45299;-41
2022/10/07 06:57:32;;;;;;;;;14.50;12.25;;;;;22.14;55.30;101716.16;5080908;27;46327;-38
2022/10/07 06:59:59;;;;;;;;;12.00;12.00;;;;;22.13;54.83;101715.28;5080868;28;45148;-39
2022/10/07 07:02:25;;;;;;;;;13.50;13.00;;;;;22.14;55.26;101713.50;5079997;28;45386;-38
2022/10/07 07:04:50;;;;;;;;;16.00;15.75;;;;;22.14;55.09;101721.47;5081230;28;45476;-39
2022/10/07 07:07:16;;;;;;;;;18.25;15.00;;;;;22.14;55.66;101717.03;5053949;28;68562;-39
2022/10/07 07:09:41;;;;;;;;;18.25;16.25;;;;;22.14;54.74;101719.69;5062238;28;63859;-38
2022/10/07 07:12:07;;;;;;;;;16.50;15.75;;;;;22.14;55.15;101721.47;5059912;28;59322;-38
2022/10/07 07:14:34;;;;;;;;;13.75;12.50;;;;;22.14;54.88;101724.13;5059724;28;66216;-40
2022/10/07 07:16:59;;;;;;;;;17.25;12.25;;;;;22.14;54.66;101725.00;5060322;28;45337;-39
2022/10/07 07:19:25;;;;;;;;;15.75;14.50;;;;;22.15;55.31;101726.78;5060069;28;52322;-38
2022/10/07 07:21:50;;;;;;;;;14.50;14.00;;;;;22.15;55.69;101723.22;5060732;28;45895;-39
2022/10/07 07:24:16;;;;;;;;;18.50;15.25;;;;;22.15;54.99;101718.81;5060517;28;45371;-39
2022/10/07 07:26:41;;;;;;;;;16.00;15.25;;;;;22.14;55.29;101717.03;5059512;28;64182;-38
2022/10/07 07:29:07;;;;;;;;;15.00;13.25;;;;;22.14;55.21;101719.69;5060456;28;45296;-39
2022/10/07 07:31:33;;;;;;;;;15.25;13.25;;;;;22.14;55.09;101710.84;5059587;28;45724;-41
2022/10/07 07:34:00;;;;;;;;;13.00;11.25;;;;;22.13;55.48;101714.41;5058984;28;45268;-39
2022/10/07 07:36:26;;;;;;;;;15.25;12.75;;;;;22.12;55.28;101708.22;5060418;28;46111;-39
2022/10/07 07:38:55;;;;;;;;;20.75;15.50;;;;;22.14;54.74;101710.84;5070034;28;45413;-39
2022/10/07 07:41:23;;;;;;;;;15.00;13.25;;;;;22.16;54.34;101711.69;5060163;28;45235;-42
2022/10/07 07:43:53;;;;;;;;;18.50;13.50;;;;;22.19;55.50;101708.97;5060083;28;45214;-40
2022/10/07 07:46:19;;;;;;;;;14.25;14.25;;;;;22.19;55.05;101708.97;5058704;28;48351;-39
2022/10/07 07:48:45;;;;;;;;;15.25;14.00;;;;;22.18;54.72;101708.09;5059943;28;45349;-39
2022/10/07 07:51:12;;;;;;;;;16.25;12.75;;;;;22.19;55.30;101704.50;5060290;28;45330;-39
2022/10/07 07:53:38;;;;;;;;;14.75;13.00;;;;;22.19;55.06;101700.97;5060158;28;45486;-39
2022/10/07 07:56:03;;;;;;;;;15.50;14.75;;;;;22.19;55.10;101699.19;5080190;28;46064;-39
2022/10/07 07:58:28;;;;;;;;;13.25;12.50;;;;;22.18;55.24;101696.59;5080202;28;45153;-39
2022/10/07 08:01:20;;;;;;;;;15.75;13.75;;;;;22.16;55.04;101693.09;5080456;28;45416;-39
2022/10/07 08:03:46;;;;;;;;;16.25;14.50;;;;;22.18;54.28;101691.25;5076332;28;63549;-39
2022/10/07 08:06:12;;;;;;;;;20.50;16.75;;;;;22.20;54.38;101694.75;5080216;28;45288;-39
2022/10/07 08:08:37;;;;;;;;;17.50;15.00;;;;;22.23;55.07;101695.53;5062246;28;45304;-39
2022/10/07 08:11:07;;;;;;;;;11.50;11.50;;;;;22.25;53.92;101693.75;5068818;28;45406;-40
2022/10/07 08:13:34;;;;;;;;;13.00;11.00;;;;;22.26;53.88;101697.28;5059757;28;45336;-39
2022/10/07 08:15:59;;;;;;;;;15.50;14.25;;;;;22.25;53.82;101699.06;5070286;28;45443;-39
2022/10/07 08:18:25;;;;;;;;;20.75;15.50;;;;;22.25;53.27;101704.38;5060731;28;55756;-39
2022/10/07 08:20:56;;;;;;;;;18.75;15.25;;;;;22.24;53.32;101701.72;5059818;28;45270;-39
2022/10/07 08:23:21;;;;;;;;;17.00;16.25;;;;;22.22;53.24;101695.59;5059494;28;45405;-40
2022/10/07 08:25:52;;;;;;;;;17.50;15.00;;;;;22.20;53.25;101692.09;5057619;28;63304;-40
2022/10/07 08:28:17;;;;;;;;;17.00;13.50;;;;;22.18;53.60;101691.25;5059714;28;45291;-39
2022/10/07 08:30:45;;;;;;;;;13.50;13.50;;;;;22.16;53.82;101690.44;5059785;28;46599;-40
2022/10/07 08:33:10;;;;;;;;;12.50;12.50;;;;;22.13;53.87;101688.69;5057964;28;45381;-39
2022/10/07 08:35:35;;;;;;;;;12.25;11.25;;;;;22.11;53.52;101685.22;5071799;28;46312;-40
2022/10/07 08:38:01;;;;;;;;;13.25;12.00;;;;;22.08;53.98;101679.97;5058963;28;62721;-40
2022/10/07 08:40:26;;;;;;;;;16.75;15.25;;;;;22.07;54.10;101682.63;5059167;28;47096;-39
2022/10/07 08:42:53;;;;;;;;;17.25;13.75;;;;;22.05;54.04;101679.13;5058487;28;45658;-39
2022/10/07 08:45:26;;;;;;;;;14.75;13.00;;;;;22.02;53.65;101672.97;5062830;28;45391;-39
2022/10/07 08:47:52;;;;;;;;;17.25;13.50;;;;;22.02;53.78;101678.28;5049703;28;46125;-40
2022/10/07 08:51:08;;;;;;;;;17.00;15.00;;;;;21.99;54.26;101675.72;5062935;28;45542;-40
2022/10/07 08:53:35;;;;;;;;;13.25;12.00;;;;;21.97;53.89;101674.84;5050290;28;45359;-39
2022/10/07 08:56:07;;;;;;;;;14.00;11.75;;;;;21.95;53.76;101674.03;5062606;28;46290;-39
2022/10/07 08:58:44;;;;;;;;;13.25;13.25;;;;;21.94;53.98;101671.41;5061486;28;45430;-39
2022/10/07 09:01:29;;;;;;;;;15.00;11.75;;;;;21.92;54.24;101668.78;5062895;28;45280;-39
2022/10/07 09:04:04;;;;;;;;;13.75;13.75;;;;;21.91;54.50;101659.06;5062575;28;45268;-39
2022/10/07 09:06:36;;;;;;;;;13.00;12.00;;;;;21.90;54.16;101656.44;5062472;28;45303;-39
2022/10/07 09:09:05;;;;;;;;;17.25;14.75;;;;;21.88;54.55;101655.59;5054152;28;45427;-40
2022/10/07 09:11:30;;;;;;;;;14.25;14.00;;;;;21.87;54.48;101657.38;5065377;28;45480;-40
2022/10/07 09:14:17;;;;;;;;;14.25;12.25;;;;;21.86;54.25;101658.28;5070277;28;45372;-40
2022/10/07 09:16:43;;;;;;;;;10.50;8.50;;;;;21.84;54.61;101641.50;5050607;28;46361;-39
2022/10/07 09:19:27;;;;;;;;;16.75;13.75;;;;;21.84;55.29;101644.16;5056374;28;45256;-40
2022/10/07 09:21:53;;;;;;;;;12.75;9.25;;;;;21.82;54.58;101639.81;5057595;28;45258;-39
2022/10/07 09:24:21;;;;;;;;;11.00;10.25;;;;;21.81;54.78;101638.06;5061924;28;56432;-44
2022/10/07 09:26:47;;;;;;;;;16.00;15.00;;;;;21.79;54.76;101630.09;5060803;28;48186;-40
2022/10/07 09:29:12;;;;;;;;;15.50;15.50;;;;;21.79;55.00;101635.41;5043976;28;45314;-39
2022/10/07 09:31:38;;;;;;;;;12.00;11.25;;;;;21.77;55.70;101626.59;5060261;28;65588;-40
2022/10/07 09:34:04;;;;;;;;;13.00;12.25;;;;;21.76;55.27;101621.34;5074647;28;45449;-40
2022/10/07 09:36:29;;;;;;;;;14.00;12.75;;;;;21.76;55.19;101624.00;5068505;28;45759;-40
2022/10/07 09:38:55;;;;;;;;;14.25;11.00;;;;;21.73;56.14;101615.19;5068201;28;45333;-40
2022/10/07 09:41:31;;;;;;;;;13.00;12.75;;;;;21.72;55.20;101613.44;5060725;28;45414;-40
2022/10/07 09:44:05;;;;;;;;;14.50;12.75;;;;;21.72;54.91;101616.09;5060739;28;45416;-41
2022/10/07 09:46:46;;;;;;;;;13.00;10.25;;;;;21.72;55.35;101610.78;5050259;28;45339;-41
2022/10/07 09:49:26;;;;;;;;;11.00;11.00;;;;;21.71;55.60;101611.66;5050689;28;45306;-40
2022/10/07 09:52:14;;;;;;;;;12.50;11.00;;;;;21.72;55.35;101604.59;5081916;28;45447;-42
2022/10/07 09:54:40;;;;;;;;;12.00;11.75;;;;;21.69;55.18;101602.00;5071441;28;45411;-40
2022/10/07 09:57:08;;;;;;;;;14.00;9.75;;;;;21.68;55.45;101590.50;5060233;28;46219;-40
2022/10/07 09:59:34;;;;;;;;;12.75;11.00;;;;;21.68;55.65;101590.50;5034558;28;45367;-40
2022/10/07 10:02:12;;;;;;;;;11.00;11.00;;;;;21.68;55.22;101592.28;5060468;28;45381;-40
2022/10/07 10:04:45;;;;;;;;;14.25;11.50;;;;;21.67;55.32;101594.06;5062054;28;45157;-41
2022/10/07 10:07:18;;;;;;;;;14.25;11.75;;;;;21.68;55.26;101590.50;5059700;28;45365;-40
2022/10/07 10:09:50;;;;;;;;;12.25;9.50;;;;;21.68;55.35;101582.53;5047979;28;45450;-40
2022/10/07 10:12:17;;;;;;;;;11.75;10.00;;;;;21.70;55.31;101593.97;5051971;28;45745;-39
2022/10/07 10:14:44;;;;;;;;;17.50;12.25;;;;;21.70;55.34;101583.34;5066614;28;45326;-39
2022/10/07 10:17:34;;;;;;;;;13.50;12.75;;;;;21.69;55.61;101573.63;5068396;28;45473;-41
2022/10/07 10:20:22;;;;;;;;;16.75;12.50;;;;;21.70;55.20;101574.50;5063192;28;45280;-40
2022/10/07 10:22:48;;;;;;;;;9.50;9.50;;;;;21.69;55.08;101568.31;5051770;28;45358;-40
2022/10/07 10:28:16;;;;;;;;;11.00;9.50;;;;;21.69;54.87;101559.47;5062188;28;45324;-39
2022/10/07 10:30:55;;;;;;;;;14.25;12.25;;;;;21.68;55.33;101563.06;5073365;28;45293;-39
2022/10/07 10:33:39;;;;;;;;;11.25;9.75;;;;;21.68;54.94;101560.41;5073518;28;45508;-39
2022/10/07 10:36:17;;;;;;;;;14.25;13.25;;;;;21.67;55.16;101556.88;5073580;28;45517;-39
2022/10/07 10:39:00;;;;;;;;;10.50;10.50;;;;;21.66;55.13;101547.16;5059833;28;45259;-40
2022/10/07 10:41:55;;;;;;;;;12.50;11.00;;;;;21.66;55.02;101554.25;5052156;28;45868;-40
2022/10/07 10:44:31;;;;;;;;;11.25;10.25;;;;;21.67;55.11;101553.34;5057214;28;45327;-40
2022/10/07 10:47:05;;;;;;;;;11.50;11.00;;;;;21.65;54.98;101553.38;5060887;28;45184;-40
2022/10/07 10:49:36;;;;;;;;;13.50;9.75;;;;;21.65;55.16;101541.88;5067823;28;46254;-40
2022/10/07 10:52:02;;;;;;;;;11.75;10.75;;;;;21.64;54.73;101542.78;5077373;28;45367;-40
2022/10/07 10:54:59;;;;;;;;;9.00;9.00;;;;;21.63;54.80;101544.59;5061466;28;45314;-39
2022/10/07 10:57:43;;;;;;;;;10.00;8.00;;;;;21.63;55.19;101546.34;5060280;28;45517;-40
2022/10/07 11:00:16;;;;;;;;;10.75;7.25;;;;;21.62;54.69;101536.63;5060604;28;45327;-40
2022/10/07 11:02:42;;;;;;;;;10.00;8.25;;;;;21.62;54.61;101536.63;5049316;28;45493;-40
2022/10/07 11:05:13;;;;;;;;;9.50;9.50;;;;;21.61;54.54;101519.81;5060862;28;45350;-39
2022/10/07 11:07:48;;;;;;;;;9.00;8.75;;;;;21.60;54.33;101522.50;5066568;28;45194;-39
2022/10/07 11:10:40;;;;;;;;;9.00;9.00;;;;;21.61;54.71;101521.59;5040807;28;48087;-39
2022/10/07 11:13:06;;;;;;;;;10.75;9.25;;;;;21.59;54.56;101518.97;5074793;28;45389;-40
2022/10/07 11:15:36;;;;;;;;;9.00;7.50;;;;;21.60;54.63;101511.88;5080977;28;45218;-40
2022/10/07 11:18:05;;;;;;;;;10.00;7.50;;;;;21.59;54.77;101516.31;5062963;28;45280;-40
2022/10/07 11:20:38;;;;;;;;;8.75;8.75;;;;;21.59;54.67;101516.31;5062844;28;46057;-39
2022/10/07 11:23:42;;;;;;;;;11.75;8.50;;;;;21.60;54.45;101502.13;5079592;28;45485;-39
2022/10/07 11:26:16;;;;;;;;;8.00;7.25;;;;;21.59;54.62;101487.09;5078453;28;45642;-39
2022/10/07 11:28:41;;;;;;;;;9.25;9.00;;;;;21.58;54.44;101487.16;5080805;28;45299;-39
2022/10/07 11:31:12;;;;;;;;;7.50;7.50;;;;;21.58;54.27;101487.16;5079129;28;46090;-39